Time;durP1;ratioP1;P1;durP2;ratioP2;P2;SDS_P1;SDS_P2;PMS_P1;PMS_P2;Temp;Humidity;BMP_temperature;BMP_pressure;BME280_temperature;BME280_humidity;BME280_pressure;Samples;Min_cycle;Max_cycle;Signal;HPM_P1;HPM_P2
2023/07/14 00:01:26;;;;;;;8.77;5.00;;;;;;;;;;5056151;28;20596;-66
2023/07/14 00:03:52;;;;;;;6.67;5.07;;;;;;;;;;5037580;28;20231;-66
2023/07/14 00:06:18;;;;;;;6.73;5.07;;;;;;;;;;5055651;28;20648;-66
2023/07/14 00:08:45;;;;;;;7.07;5.13;;;;;;;;;;5055950;28;20261;-67
2023/07/14 00:11:21;;;;;;;8.47;4.53;;;;;;;;;;5055270;28;20762;-67
2023/07/14 00:13:48;;;;;;;8.27;4.97;;;;;;;;;;5055884;28;20194;-66
2023/07/14 00:16:16;;;;;;;8.13;5.20;;;;;;;;;;5037931;28;20652;-66
2023/07/14 00:18:42;;;;;;;7.70;5.10;;;;;;;;;;5038820;28;20224;-66
2023/07/14 00:21:16;;;;;;;8.37;5.67;;;;;;;;;;5055313;28;20202;-68
2023/07/14 00:23:42;;;;;;;7.47;5.30;;;;;;;;;;5037487;28;20703;-65
2023/07/14 00:26:13;;;;;;;8.37;4.90;;;;;;;;;;5037392;28;20264;-66
2023/07/14 00:28:39;;;;;;;8.30;4.90;;;;;;;;;;5037101;28;20178;-66
2023/07/14 00:31:05;;;;;;;7.07;4.90;;;;;;;;;;5055152;28;20799;-66
2023/07/14 00:33:31;;;;;;;8.93;5.07;;;;;;;;;;5055178;28;20254;-66
2023/07/14 00:35:57;;;;;;;8.47;5.13;;;;;;;;;;5037147;28;20269;-66
2023/07/14 00:38:23;;;;;;;9.23;5.20;;;;;;;;;;5055133;28;20174;-66
2023/07/14 00:40:49;;;;;;;7.60;6.50;;;;;;;;;;5037079;28;20644;-66
2023/07/14 00:43:20;;;;;;;10.20;5.63;;;;;;;;;;5036930;28;20171;-66
2023/07/14 00:45:47;;;;;;;7.13;5.47;;;;;;;;;;5054851;28;20174;-67
2023/07/14 00:48:15;;;;;;;11.43;6.63;;;;;;;;;;5054797;28;20204;-66
2023/07/14 00:50:44;;;;;;;13.37;6.70;;;;;;;;;;5054689;28;20221;-66
2023/07/14 00:53:13;;;;;;;9.43;6.80;;;;;;;;;;5036902;28;20175;-66
2023/07/14 00:55:40;;;;;;;11.53;7.40;;;;;;;;;;5054522;28;20178;-66
2023/07/14 00:58:14;;;;;;;10.73;6.00;;;;;;;;;;5036936;28;20186;-68
2023/07/14 01:00:40;;;;;;;10.93;6.50;;;;;;;;;;5054596;28;20201;-66
2023/07/14 01:03:14;;;;;;;9.33;6.90;;;;;;;;;;5036666;28;20265;-66
2023/07/14 01:05:39;;;;;;;10.03;6.60;;;;;;;;;;5055006;28;20238;-66
2023/07/14 01:08:06;;;;;;;7.43;6.73;;;;;;;;;;5036642;28;20608;-66
2023/07/14 01:10:32;;;;;;;8.53;6.70;;;;;;;;;;5054582;28;20194;-66
2023/07/14 01:12:59;;;;;;;10.17;7.43;;;;;;;;;;5036452;28;20272;-66
2023/07/14 01:15:25;;;;;;;8.17;6.43;;;;;;;;;;5036340;28;20539;-66
2023/07/14 01:17:52;;;;;;;9.50;6.40;;;;;;;;;;5036412;28;20178;-66
2023/07/14 01:20:18;;;;;;;11.40;7.63;;;;;;;;;;5036279;28;20206;-66
2023/07/14 01:22:50;;;;;;;13.50;8.33;;;;;;;;;;5036372;28;20288;-66
2023/07/14 01:25:32;;;;;;;11.90;7.47;;;;;;;;;;5053999;28;20175;-66
2023/07/14 01:27:58;;;;;;;8.33;7.17;;;;;;;;;;5054070;28;20190;-66
2023/07/14 01:30:25;;;;;;;10.97;8.13;;;;;;;;;;5036161;28;20206;-67
2023/07/14 01:32:51;;;;;;;10.93;7.30;;;;;;;;;;5053864;28;20569;-67
2023/07/14 01:35:18;;;;;;;11.30;8.23;;;;;;;;;;5054507;28;20174;-67
2023/07/14 01:37:45;;;;;;;11.93;8.30;;;;;;;;;;5053806;28;20649;-67
2023/07/14 01:40:13;;;;;;;10.10;7.60;;;;;;;;;;5053241;28;20209;-66
2023/07/14 01:42:42;;;;;;;10.73;7.47;;;;;;;;;;5053802;28;20174;-67
2023/07/14 01:45:12;;;;;;;10.07;7.33;;;;;;;;;;5054010;28;20221;-67
2023/07/14 01:47:38;;;;;;;13.07;7.77;;;;;;;;;;5035960;28;20284;-67
2023/07/14 01:50:05;;;;;;;9.90;7.60;;;;;;;;;;5053459;28;20218;-67
2023/07/14 01:52:32;;;;;;;13.20;8.77;;;;;;;;;;5035756;28;20202;-67
2023/07/14 01:55:01;;;;;;;12.67;8.23;;;;;;;;;;5035814;28;20699;-67
2023/07/14 01:57:28;;;;;;;11.27;9.20;;;;;;;;;;5053713;28;20170;-67
2023/07/14 01:59:56;;;;;;;11.83;8.40;;;;;;;;;;5054049;28;20319;-67
2023/07/14 02:02:25;;;;;;;11.90;8.53;;;;;;;;;;5058606;28;20204;-67
2023/07/14 02:04:52;;;;;;;9.67;7.40;;;;;;;;;;5038108;28;20243;-67
2023/07/14 02:07:18;;;;;;;12.63;7.80;;;;;;;;;;5054332;28;20697;-66
2023/07/14 02:09:45;;;;;;;11.27;7.60;;;;;;;;;;5053694;28;20204;-65
2023/07/14 02:12:16;;;;;;;14.03;6.97;;;;;;;;;;5035789;28;20260;-65
2023/07/14 02:14:45;;;;;;;10.97;7.10;;;;;;;;;;5053965;28;20171;-65
2023/07/14 02:17:16;;;;;;;8.30;5.40;;;;;;;;;;5035648;28;20604;-64
2023/07/14 02:19:42;;;;;;;10.30;5.70;;;;;;;;;;5053763;28;20193;-67
2023/07/14 02:22:08;;;;;;;9.73;5.83;;;;;;;;;;5035756;28;20214;-67
2023/07/14 02:24:34;;;;;;;8.50;5.37;;;;;;;;;;5035298;28;20611;-67
2023/07/14 02:27:03;;;;;;;10.53;5.40;;;;;;;;;;5035312;28;20187;-67
2023/07/14 02:29:30;;;;;;;9.73;5.23;;;;;;;;;;5053348;28;20198;-68
2023/07/14 02:32:00;;;;;;;5.63;4.50;;;;;;;;;;5035220;28;20205;-67
2023/07/14 02:34:29;;;;;;;9.77;5.03;;;;;;;;;;5035350;28;20205;-67
2023/07/14 02:36:57;;;;;;;6.87;4.70;;;;;;;;;;5035263;28;20178;-67
2023/07/14 02:39:23;;;;;;;8.07;5.53;;;;;;;;;;5053159;28;20198;-66
2023/07/14 02:41:50;;;;;;;6.10;5.20;;;;;;;;;;5053076;28;20327;-67
2023/07/14 02:44:17;;;;;;;9.50;4.80;;;;;;;;;;5053026;28;20179;-67
2023/07/14 02:46:46;;;;;;;10.10;5.37;;;;;;;;;;5053363;28;20645;-67
2023/07/14 02:49:12;;;;;;;9.00;5.30;;;;;;;;;;5034909;28;20202;-67
2023/07/14 02:51:38;;;;;;;10.13;5.30;;;;;;;;;;5055728;28;20199;-67
2023/07/14 02:54:07;;;;;;;8.77;4.83;;;;;;;;;;5056904;28;20174;-66
2023/07/14 02:56:33;;;;;;;7.80;5.20;;;;;;;;;;5057476;28;20174;-66
2023/07/14 02:58:59;;;;;;;8.67;5.23;;;;;;;;;;5039000;28;20201;-67
2023/07/14 03:01:28;;;;;;;7.20;5.40;;;;;;;;;;5039061;28;20192;-66
2023/07/14 03:03:54;;;;;;;8.63;5.57;;;;;;;;;;5038812;28;20188;-67
2023/07/14 03:06:22;;;;;;;8.90;5.60;;;;;;;;;;5038864;28;20178;-67
2023/07/14 03:08:48;;;;;;;9.03;4.87;;;;;;;;;;5056722;28;20178;-67
2023/07/14 03:11:14;;;;;;;9.27;5.50;;;;;;;;;;5038555;28;20206;-66
2023/07/14 03:13:40;;;;;;;13.33;5.17;;;;;;;;;;5056509;28;20170;-66
2023/07/14 03:16:06;;;;;;;9.53;5.40;;;;;;;;;;5056533;28;20175;-66
2023/07/14 03:18:32;;;;;;;10.13;5.57;;;;;;;;;;5038539;28;20183;-66
2023/07/14 03:21:00;;;;;;;7.30;5.30;;;;;;;;;;5056369;28;20190;-66
2023/07/14 03:23:26;;;;;;;10.27;5.30;;;;;;;;;;5038425;28;20175;-66
2023/07/14 03:26:01;;;;;;;12.97;5.53;;;;;;;;;;5056370;28;20175;-66
2023/07/14 03:28:27;;;;;;;8.93;5.67;;;;;;;;;;5039232;28;20266;-66
2023/07/14 03:30:53;;;;;;;11.67;5.37;;;;;;;;;;5038131;28;20268;-67
2023/07/14 03:33:19;;;;;;;9.93;5.80;;;;;;;;;;5056316;28;20592;-67
2023/07/14 03:35:45;;;;;;;9.17;5.90;;;;;;;;;;5056372;28;20179;-67
2023/07/14 03:38:11;;;;;;;9.53;5.70;;;;;;;;;;5056569;28;20170;-68
2023/07/14 03:40:37;;;;;;;6.53;5.23;;;;;;;;;;5038172;28;20572;-67
2023/07/14 03:43:03;;;;;;;9.53;5.27;;;;;;;;;;5038071;28;20186;-67
2023/07/14 03:45:30;;;;;;;7.53;5.07;;;;;;;;;;5056160;28;20632;-67
2023/07/14 03:47:55;;;;;;;6.67;5.37;;;;;;;;;;5039206;28;20200;-67
2023/07/14 03:50:21;;;;;;;9.77;5.63;;;;;;;;;;5056199;28;20218;-67
2023/07/14 03:52:48;;;;;;;8.20;5.07;;;;;;;;;;5038277;28;20226;-67
2023/07/14 03:55:14;;;;;;;7.37;5.30;;;;;;;;;;5037790;28;20259;-67
2023/07/14 03:57:41;;;;;;;8.27;5.27;;;;;;;;;;5055789;28;20538;-68
2023/07/14 04:00:14;;;;;;;11.83;5.93;;;;;;;;;;5037678;28;20658;-67
2023/07/14 04:02:44;;;;;;;9.83;5.30;;;;;;;;;;5055617;28;20159;-67
2023/07/14 04:05:11;;;;;;;9.03;5.30;;;;;;;;;;5037711;28;20179;-67
2023/07/14 04:07:37;;;;;;;7.10;4.77;;;;;;;;;;5055875;28;20175;-67
2023/07/14 04:10:04;;;;;;;9.43;5.73;;;;;;;;;;5037522;28;20198;-67
2023/07/14 04:12:30;;;;;;;8.83;5.30;;;;;;;;;;5037368;28;20208;-67
2023/07/14 04:14:56;;;;;;;6.70;4.77;;;;;;;;;;5055549;28;20170;-67
2023/07/14 04:17:22;;;;;;;8.43;5.30;;;;;;;;;;5055418;28;20706;-67
2023/07/14 04:19:49;;;;;;;8.27;5.20;;;;;;;;;;5055545;28;20202;-67
2023/07/14 04:22:15;;;;;;;9.73;4.77;;;;;;;;;;5037360;28;20269;-67
2023/07/14 04:24:41;;;;;;;9.53;5.30;;;;;;;;;;5055280;28;20192;-67
2023/07/14 04:27:07;;;;;;;11.90;5.50;;;;;;;;;;5037301;28;20281;-67
2023/07/14 04:29:33;;;;;;;7.07;5.07;;;;;;;;;;5037315;28;20251;-68
2023/07/14 04:31:59;;;;;;;7.17;5.63;;;;;;;;;;5037494;28;20213;-67
2023/07/14 04:34:28;;;;;;;8.07;5.10;;;;;;;;;;5055092;28;20186;-68
2023/07/14 04:36:54;;;;;;;10.97;5.67;;;;;;;;;;5055120;28;20258;-67
2023/07/14 04:39:20;;;;;;;9.30;5.70;;;;;;;;;;5054834;28;20233;-67
2023/07/14 04:41:46;;;;;;;7.43;4.90;;;;;;;;;;5055310;28;20183;-67
2023/07/14 04:44:15;;;;;;;7.90;4.93;;;;;;;;;;5036987;28;20183;-67
2023/07/14 04:46:42;;;;;;;8.83;5.07;;;;;;;;;;5054832;28;20182;-68
2023/07/14 04:49:08;;;;;;;6.63;4.73;;;;;;;;;;5036657;28;20190;-67
2023/07/14 04:51:35;;;;;;;10.93;5.00;;;;;;;;;;5054980;28;20198;-67
2023/07/14 04:54:01;;;;;;;8.10;5.03;;;;;;;;;;5036699;28;20186;-67
2023/07/14 04:56:27;;;;;;;7.80;4.90;;;;;;;;;;5036770;28;20174;-67
2023/07/14 04:58:53;;;;;;;6.60;4.60;;;;;;;;;;5036705;28;20183;-67
2023/07/14 05:01:19;;;;;;;13.27;5.33;;;;;;;;;;5054409;28;20229;-67
2023/07/14 05:03:45;;;;;;;7.77;4.40;;;;;;;;;;5036506;28;20217;-67
2023/07/14 05:06:12;;;;;;;10.63;5.13;;;;;;;;;;5054370;28;20530;-67
2023/07/14 05:08:38;;;;;;;6.90;4.80;;;;;;;;;;5054606;28;20175;-67
2023/07/14 05:11:04;;;;;;;15.90;5.37;;;;;;;;;;5054171;28;20290;-67
2023/07/14 05:13:30;;;;;;;10.20;5.13;;;;;;;;;;5036068;28;20178;-67
2023/07/14 05:15:57;;;;;;;10.33;5.57;;;;;;;;;;5035606;28;20668;-68
2023/07/14 05:18:23;;;;;;;11.13;5.83;;;;;;;;;;5054151;28;20648;-68
2023/07/14 05:20:49;;;;;;;7.33;4.73;;;;;;;;;;5036099;28;20256;-67
2023/07/14 05:23:15;;;;;;;14.00;5.30;;;;;;;;;;5035991;28;20185;-68
2023/07/14 05:25:41;;;;;;;11.10;4.83;;;;;;;;;;5053995;28;20262;-68
2023/07/14 05:28:07;;;;;;;9.13;4.67;;;;;;;;;;5036107;28;20209;-67
2023/07/14 05:30:33;;;;;;;8.17;4.80;;;;;;;;;;5053891;28;20730;-67
2023/07/14 05:33:00;;;;;;;7.40;5.00;;;;;;;;;;5054730;28;20206;-68
2023/07/14 05:35:26;;;;;;;7.40;4.43;;;;;;;;;;5053998;28;20195;-67
2023/07/14 05:37:53;;;;;;;12.03;4.50;;;;;;;;;;5053961;28;20178;-67
2023/07/14 05:40:20;;;;;;;11.33;4.67;;;;;;;;;;5053659;28;20218;-67
2023/07/14 05:42:46;;;;;;;11.53;4.60;;;;;;;;;;5053728;28;20182;-67
2023/07/14 05:45:13;;;;;;;12.67;4.50;;;;;;;;;;5053793;28;20185;-67
2023/07/14 05:47:39;;;;;;;8.13;4.40;;;;;;;;;;5053703;28;20257;-67
2023/07/14 05:50:06;;;;;;;8.80;4.43;;;;;;;;;;5035671;28;20218;-67
2023/07/14 05:52:32;;;;;;;11.13;4.97;;;;;;;;;;5053515;28;20675;-67
2023/07/14 05:54:58;;;;;;;9.53;3.97;;;;;;;;;;5035544;28;20182;-67
2023/07/14 05:57:24;;;;;;;9.20;4.20;;;;;;;;;;5053511;28;20228;-67
2023/07/14 05:59:51;;;;;;;12.13;4.37;;;;;;;;;;5035577;28;20202;-67
2023/07/14 06:02:18;;;;;;;11.30;4.60;;;;;;;;;;5053347;28;20209;-67
2023/07/14 06:04:45;;;;;;;7.70;4.07;;;;;;;;;;5035896;28;20559;-69
2023/07/14 06:07:12;;;;;;;8.43;4.50;;;;;;;;;;5035530;28;20225;-67
2023/07/14 06:09:38;;;;;;;8.13;3.97;;;;;;;;;;5053261;28;20201;-67
2023/07/14 06:12:05;;;;;;;10.73;4.10;;;;;;;;;;5035271;28;20242;-67
2023/07/14 06:14:32;;;;;;;6.70;4.00;;;;;;;;;;5053391;28;20232;-67
2023/07/14 06:16:58;;;;;;;9.93;4.70;;;;;;;;;;5053194;28;20178;-67
2023/07/14 06:19:24;;;;;;;12.17;4.97;;;;;;;;;;5052996;28;20742;-67
2023/07/14 06:21:50;;;;;;;8.23;4.27;;;;;;;;;;5053328;28;20178;-67
2023/07/14 06:24:16;;;;;;;11.40;4.90;;;;;;;;;;5053193;28;20188;-67
2023/07/14 06:26:42;;;;;;;13.67;4.40;;;;;;;;;;5053804;28;20261;-67
2023/07/14 06:29:08;;;;;;;9.00;4.07;;;;;;;;;;5035175;28;20179;-67
2023/07/14 06:31:34;;;;;;;10.03;4.37;;;;;;;;;;5035120;28;20293;-67
2023/07/14 06:34:00;;;;;;;8.20;4.50;;;;;;;;;;5053030;28;20182;-67
2023/07/14 06:36:26;;;;;;;10.30;5.30;;;;;;;;;;5053237;28;20181;-68
2023/07/14 06:38:52;;;;;;;13.13;4.77;;;;;;;;;;5052990;28;20178;-68
2023/07/14 06:41:18;;;;;;;5.43;3.90;;;;;;;;;;5052889;28;20198;-67
2023/07/14 06:43:44;;;;;;;9.37;3.60;;;;;;;;;;5034915;28;20183;-67
2023/07/14 06:46:10;;;;;;;8.57;4.13;;;;;;;;;;5035570;28;20197;-68
2023/07/14 06:48:36;;;;;;;8.87;4.57;;;;;;;;;;5035004;28;20589;-68
2023/07/14 06:51:02;;;;;;;7.47;4.03;;;;;;;;;;5052551;28;20214;-68
2023/07/14 06:53:29;;;;;;;13.07;6.10;;;;;;;;;;5053924;28;20644;-68
2023/07/14 06:55:55;;;;;;;15.17;5.80;;;;;;;;;;5053870;28;20182;-68
2023/07/14 06:58:21;;;;;;;10.43;4.60;;;;;;;;;;5054042;28;20218;-68
2023/07/14 07:00:46;;;;;;;9.63;4.10;;;;;;;;;;5053396;28;20292;-68
2023/07/14 07:03:12;;;;;;;14.27;6.53;;;;;;;;;;5052769;28;20178;-68
2023/07/14 07:05:42;;;;;;;10.70;5.93;;;;;;;;;;5052620;28;20178;-67
2023/07/14 07:08:09;;;;;;;7.27;4.13;;;;;;;;;;5052555;28;20175;-68
2023/07/14 07:10:35;;;;;;;7.73;4.33;;;;;;;;;;5052489;28;20206;-68
2023/07/14 07:13:01;;;;;;;8.67;4.47;;;;;;;;;;5052457;28;20209;-68
2023/07/14 07:15:27;;;;;;;9.63;3.77;;;;;;;;;;5052506;28;20170;-66
2023/07/14 07:17:53;;;;;;;10.17;4.37;;;;;;;;;;5052925;28;20198;-67
2023/07/14 07:20:19;;;;;;;11.37;4.23;;;;;;;;;;5053171;28;20198;-66
2023/07/14 07:22:46;;;;;;;6.40;3.90;;;;;;;;;;5052354;28;20232;-67
2023/07/14 07:25:12;;;;;;;8.30;4.20;;;;;;;;;;5052958;28;20257;-68
2023/07/14 07:27:38;;;;;;;8.73;3.50;;;;;;;;;;5052481;28;20692;-66
2023/07/14 07:30:05;;;;;;;13.03;3.73;;;;;;;;;;5052423;28;20290;-67
2023/07/14 07:32:31;;;;;;;7.10;3.90;;;;;;;;;;5052425;28;20247;-66
2023/07/14 07:35:00;;;;;;;5.57;3.13;;;;;;;;;;5052740;28;20217;-67
2023/07/14 07:37:27;;;;;;;6.53;3.60;;;;;;;;;;5053009;28;20167;-67
2023/07/14 07:39:54;;;;;;;11.73;4.17;;;;;;;;;;5038012;28;20281;-67
2023/07/14 07:42:20;;;;;;;10.27;4.00;;;;;;;;;;5055985;28;20625;-67
2023/07/14 07:44:46;;;;;;;6.87;3.30;;;;;;;;;;5055889;28;20530;-67
2023/07/14 07:47:12;;;;;;;9.73;3.73;;;;;;;;;;5056380;28;20179;-67
2023/07/14 07:49:39;;;;;;;6.17;3.83;;;;;;;;;;5037815;28;20218;-67
2023/07/14 07:52:05;;;;;;;7.13;3.17;;;;;;;;;;5055599;28;20285;-68
2023/07/14 07:54:31;;;;;;;6.80;3.20;;;;;;;;;;5055727;28;20240;-67
2023/07/14 07:56:57;;;;;;;7.47;3.47;;;;;;;;;;5055731;28;20206;-67
2023/07/14 07:59:23;;;;;;;6.60;3.40;;;;;;;;;;5055511;28;20240;-67
2023/07/14 08:01:49;;;;;;;6.80;4.13;;;;;;;;;;5055598;28;20182;-67
2023/07/14 08:04:16;;;;;;;6.97;4.53;;;;;;;;;;5037627;28;20186;-67
2023/07/14 08:06:42;;;;;;;10.43;4.73;;;;;;;;;;5055526;28;20549;-67
2023/07/14 08:09:09;;;;;;;7.33;3.40;;;;;;;;;;5055618;28;20181;-67
2023/07/14 08:11:35;;;;;;;8.60;3.03;;;;;;;;;;5055920;28;20194;-68
2023/07/14 08:14:02;;;;;;;9.73;4.50;;;;;;;;;;5055819;28;20174;-67
2023/07/14 08:16:28;;;;;;;8.60;3.80;;;;;;;;;;5055187;28;20178;-67
2023/07/14 08:18:54;;;;;;;10.77;3.87;;;;;;;;;;5055494;28;20174;-68
2023/07/14 08:21:20;;;;;;;12.20;3.50;;;;;;;;;;5055301;28;20198;-67
2023/07/14 08:23:46;;;;;;;7.03;3.40;;;;;;;;;;5055424;28;20309;-67
2023/07/14 08:26:13;;;;;;;6.90;3.83;;;;;;;;;;5037244;28;20189;-67
2023/07/14 08:28:39;;;;;;;13.10;4.03;;;;;;;;;;5055284;28;20253;-67
2023/07/14 08:31:07;;;;;;;6.70;3.37;;;;;;;;;;5055047;28;20194;-67
2023/07/14 08:33:33;;;;;;;6.87;3.53;;;;;;;;;;5055211;28;20245;-68
2023/07/14 08:36:03;;;;;;;10.10;3.70;;;;;;;;;;5055125;28;20178;-67
2023/07/14 08:38:30;;;;;;;10.70;3.53;;;;;;;;;;5054883;28;20189;-67
2023/07/14 08:41:09;;;;;;;9.27;4.30;;;;;;;;;;5055053;28;20696;-67
2023/07/14 08:43:53;;;;;;;6.60;3.63;;;;;;;;;;5054823;28;20644;-67
2023/07/14 08:46:38;;;;;;;6.03;3.17;;;;;;;;;;5037136;28;20270;-68
2023/07/14 08:49:13;;;;;;;10.47;4.20;;;;;;;;;;5054788;28;20189;-67
2023/07/14 08:51:44;;;;;;;11.37;4.07;;;;;;;;;;5055917;28;20284;-68
2023/07/14 08:54:15;;;;;;;9.67;4.00;;;;;;;;;;5036948;28;20245;-67
2023/07/14 08:56:41;;;;;;;11.03;4.07;;;;;;;;;;5055866;28;20241;-68
2023/07/14 08:59:12;;;;;;;9.33;4.60;;;;;;;;;;5054958;28;20229;-68
2023/07/14 09:01:42;;;;;;;6.20;3.80;;;;;;;;;;5054908;28;20170;-68
2023/07/14 09:04:21;;;;;;;11.07;3.87;;;;;;;;;;5054596;28;20206;-68
2023/07/14 09:06:47;;;;;;;6.63;3.30;;;;;;;;;;5042596;28;20170;-68
2023/07/14 09:09:18;;;;;;;6.50;3.20;;;;;;;;;;5054646;28;20183;-67
2023/07/14 09:11:52;;;;;;;7.00;2.57;;;;;;;;;;5054912;28;20202;-68
2023/07/14 09:14:18;;;;;;;6.07;3.00;;;;;;;;;;5055270;28;20169;-68
2023/07/14 09:16:52;;;;;;;7.60;3.60;;;;;;;;;;5058014;28;20183;-68
2023/07/14 09:19:37;;;;;;;6.80;3.10;;;;;;;;;;5057417;28;20164;-67
2023/07/14 09:22:21;;;;;;;7.53;4.13;;;;;;;;;;5056950;28;20212;-67
2023/07/14 09:25:01;;;;;;;8.77;4.17;;;;;;;;;;5056186;28;20185;-67
2023/07/14 09:27:29;;;;;;;6.67;3.30;;;;;;;;;;5055932;28;20192;-67
2023/07/14 09:29:56;;;;;;;5.97;3.00;;;;;;;;;;5056092;28;20199;-68
2023/07/14 09:32:32;;;;;;;7.43;3.00;;;;;;;;;;5055841;28;20676;-67
2023/07/14 09:35:05;;;;;;;7.17;3.00;;;;;;;;;;5056583;28;20163;-67
2023/07/14 09:37:31;;;;;;;5.97;3.17;;;;;;;;;;5055851;28;20166;-67
2023/07/14 09:40:03;;;;;;;7.53;3.27;;;;;;;;;;5037800;28;20194;-67
2023/07/14 09:42:33;;;;;;;6.07;2.70;;;;;;;;;;5056806;28;20162;-67
2023/07/14 09:45:01;;;;;;;4.23;2.90;;;;;;;;;;5056974;28;20188;-67
2023/07/14 09:47:27;;;;;;;6.87;3.40;;;;;;;;;;5055611;28;20221;-67
2023/07/14 09:49:57;;;;;;;5.70;3.93;;;;;;;;;;5056117;28;20209;-67
2023/07/14 09:52:25;;;;;;;6.73;3.63;;;;;;;;;;5038405;28;20198;-66
2023/07/14 09:54:52;;;;;;;4.23;3.40;;;;;;;;;;5056607;28;20194;-67
2023/07/14 09:57:19;;;;;;;4.57;3.10;;;;;;;;;;5056419;28;20175;-67
2023/07/14 09:59:50;;;;;;;6.93;3.50;;;;;;;;;;5056724;28;20266;-67
2023/07/14 10:02:26;;;;;;;6.37;3.10;;;;;;;;;;5057596;28;20166;-67
2023/07/14 10:04:55;;;;;;;5.87;3.00;;;;;;;;;;5037137;28;20232;-66
2023/07/14 10:07:27;;;;;;;4.13;3.40;;;;;;;;;;5057036;28;20184;-67
2023/07/14 10:09:57;;;;;;;4.43;3.20;;;;;;;;;;5055386;28;20194;-67
2023/07/14 10:12:23;;;;;;;5.80;2.90;;;;;;;;;;5054726;28;20230;-67
2023/07/14 10:14:49;;;;;;;12.03;3.13;;;;;;;;;;5053096;28;20240;-67
2023/07/14 10:17:38;;;;;;;4.90;3.20;;;;;;;;;;5035244;28;20642;-67
2023/07/14 10:20:05;;;;;;;4.50;2.90;;;;;;;;;;5052570;28;20651;-67
2023/07/14 10:22:32;;;;;;;5.13;3.03;;;;;;;;;;5053051;28;20648;-67
2023/07/14 10:24:59;;;;;;;5.90;3.27;;;;;;;;;;5035104;28;20209;-68
2023/07/14 10:27:27;;;;;;;5.60;3.23;;;;;;;;;;5054063;28;20570;-68
2023/07/14 10:30:08;;;;;;;13.27;4.27;;;;;;;;;;5052992;28;20201;-68
2023/07/14 10:32:49;;;;;;;5.20;3.67;;;;;;;;;;5052866;28;20280;-68
2023/07/14 10:35:19;;;;;;;9.83;4.73;;;;;;;;;;5035163;28;20201;-67
2023/07/14 10:37:57;;;;;;;10.60;4.30;;;;;;;;;;5052760;28;20178;-68
2023/07/14 10:40:24;;;;;;;7.87;3.73;;;;;;;;;;5053390;28;20200;-68
2023/07/14 10:42:50;;;;;;;5.20;3.23;;;;;;;;;;5053536;28;20181;-68
2023/07/14 10:45:16;;;;;;;4.07;3.03;;;;;;;;;;5053015;28;20257;-69
2023/07/14 10:47:50;;;;;;;5.73;3.03;;;;;;;;;;5053258;28;20201;-68
2023/07/14 10:50:24;;;;;;;4.53;3.10;;;;;;;;;;5052906;28;20214;-68
2023/07/14 10:52:52;;;;;;;5.63;3.10;;;;;;;;;;5052715;28;20190;-68
2023/07/14 10:55:25;;;;;;;4.83;3.20;;;;;;;;;;5053598;28;20201;-68
2023/07/14 10:58:11;;;;;;;5.83;3.47;;;;;;;;;;5052643;28;20170;-67
2023/07/14 11:00:42;;;;;;;5.63;3.27;;;;;;;;;;5052584;28;20289;-67
2023/07/14 11:03:25;;;;;;;7.20;3.17;;;;;;;;;;5052832;28;20691;-68
2023/07/14 11:05:56;;;;;;;5.80;3.10;;;;;;;;;;5052933;28;20170;-68
2023/07/14 11:08:23;;;;;;;4.03;2.90;;;;;;;;;;5034761;28;20276;-67
2023/07/14 11:10:49;;;;;;;5.93;3.13;;;;;;;;;;5053182;28;20202;-68
2023/07/14 11:13:15;;;;;;;7.53;3.40;;;;;;;;;;5036704;28;20202;-68
2023/07/14 11:15:43;;;;;;;6.30;3.60;;;;;;;;;;5056653;28;20554;-68
2023/07/14 11:18:18;;;;;;;5.53;3.73;;;;;;;;;;5038692;28;20178;-68
2023/07/14 11:20:46;;;;;;;9.43;3.10;;;;;;;;;;5056885;28;20546;-67
2023/07/14 11:23:24;;;;;;;7.27;3.70;;;;;;;;;;5056304;28;20182;-66
2023/07/14 11:25:59;;;;;;;6.33;3.70;;;;;;;;;;5056834;28;20167;-66
2023/07/14 11:28:32;;;;;;;3.87;3.00;;;;;;;;;;5056625;28;20171;-66
2023/07/14 11:31:01;;;;;;;9.93;3.67;;;;;;;;;;5056317;28;20202;-66
2023/07/14 11:33:30;;;;;;;7.53;3.43;;;;;;;;;;5056255;28;20562;-67
2023/07/14 11:36:10;;;;;;;6.07;3.20;;;;;;;;;;5056332;28;20175;-67
2023/07/14 11:38:36;;;;;;;9.93;3.28;;;;;;;;;;5055042;28;20369;-66
2023/07/14 11:41:03;;;;;;;5.67;3.40;;;;;;;;;;5038233;28;20758;-67
2023/07/14 11:43:29;;;;;;;5.45;3.65;;;;;;;;;;5055160;28;20382;-67
2023/07/14 11:45:57;;;;;;;6.30;3.40;;;;;;;;;;5056069;28;20547;-67
2023/07/14 11:48:26;;;;;;;6.40;3.57;;;;;;;;;;5056466;28;20620;-67
2023/07/14 11:51:06;;;;;;;8.53;3.90;;;;;;;;;;5041340;28;20218;-67
2023/07/14 11:53:35;;;;;;;8.80;5.45;;;;;;;;;;5055400;28;20975;-67
2023/07/14 11:56:18;;;;;;;7.07;3.93;;;;;;;;;;5056904;28;20174;-67
2023/07/14 11:58:45;;;;;;;6.37;3.63;;;;;;;;;;5056295;28;20238;-67
2023/07/14 12:01:18;;;;;;;6.90;4.00;;;;;;;;;;5038185;28;20598;-66
2023/07/14 12:03:52;;;;;;;6.90;3.90;;;;;;;;;;5054502;28;20453;-67
2023/07/14 12:06:21;;;;;;;4.57;3.70;;;;;;;;;;5056020;28;20820;-67
2023/07/14 12:09:02;;;;;;;5.53;3.70;;;;;;;;;;5056295;28;20575;-68
2023/07/14 12:11:29;;;;;;;8.47;3.70;;;;;;;;;;5055484;28;20194;-67
2023/07/14 12:13:57;;;;;;;6.15;4.13;;;;;;;;;;5054292;28;20389;-67
2023/07/14 12:16:25;;;;;;;6.97;4.30;;;;;;;;;;5036394;28;20474;-67
2023/07/14 12:18:57;;;;;;;5.10;4.07;;;;;;;;;;5054584;28;20435;-67
2023/07/14 12:21:26;;;;;;;9.67;5.03;;;;;;;;;;5054231;28;20392;-67
2023/07/14 12:23:53;;;;;;;8.63;5.30;;;;;;;;;;5053737;28;20874;-67
2023/07/14 12:26:39;;;;;;;7.28;4.13;;;;;;;;;;5036171;28;20769;-67
2023/07/14 12:29:16;;;;;;;5.05;3.63;;;;;;;;;;5053585;28;20398;-67
2023/07/14 12:31:42;;;;;;;6.40;3.83;;;;;;;;;;5055418;28;20198;-66
2023/07/14 12:34:18;;;;;;;4.80;3.83;;;;;;;;;;5055177;28;20166;-66
2023/07/14 12:36:44;;;;;;;7.23;3.50;;;;;;;;;;5055729;28;20198;-67
2023/07/14 12:39:10;;;;;;;7.40;4.00;;;;;;;;;;5037347;28;20699;-67
2023/07/14 12:41:39;;;;;;;4.40;3.80;;;;;;;;;;5055925;28;20555;-68
2023/07/14 12:44:05;;;;;;;4.83;3.17;;;;;;;;;;5055417;28;20261;-66
2023/07/14 12:46:36;;;;;;;6.53;4.00;;;;;;;;;;5037852;28;20182;-67
2023/07/14 12:49:24;;;;;;;7.33;3.90;;;;;;;;;;5055360;28;20173;-67
2023/07/14 12:51:50;;;;;;;6.77;4.13;;;;;;;;;;5036920;28;20230;-67
2023/07/14 12:54:27;;;;;;;5.87;3.67;;;;;;;;;;5054701;28;20633;-67
2023/07/14 12:56:59;;;;;;;5.93;3.70;;;;;;;;;;5036851;28;20181;-67
2023/07/14 12:59:25;;;;;;;6.27;3.73;;;;;;;;;;5060516;23;20229;-64
2023/07/14 13:01:52;;;;;;;12.10;4.70;;;;;;;;;;5054953;28;20175;-65
2023/07/14 13:04:19;;;;;;;12.10;4.27;;;;;;;;;;5055229;28;20185;-64
2023/07/14 13:06:47;;;;;;;9.97;4.27;;;;;;;;;;5036835;28;20202;-65
2023/07/14 13:09:26;;;;;;;10.53;4.80;;;;;;;;;;5054759;28;20210;-64
2023/07/14 13:11:52;;;;;;;5.90;4.30;;;;;;;;;;5036819;28;20702;-65
2023/07/14 13:14:20;;;;;;;14.33;5.10;;;;;;;;;;5054529;28;20188;-65
2023/07/14 13:16:46;;;;;;;11.23;5.10;;;;;;;;;;5054474;28;20597;-64
2023/07/14 13:19:21;;;;;;;7.40;4.43;;;;;;;;;;5053451;28;20392;-65
2023/07/14 13:21:48;;;;;;;8.80;4.63;;;;;;;;;;5053100;28;20369;-65
2023/07/14 13:24:16;;;;;;;7.23;4.27;;;;;;;;;;5035322;28;20439;-64
2023/07/14 13:26:51;;;;;;;6.15;4.03;;;;;;;;;;5052997;28;20456;-64
2023/07/14 13:29:25;;;;;;;6.00;4.13;;;;;;;;;;5053164;28;20393;-65
2023/07/14 13:31:56;;;;;;;6.40;4.30;;;;;;;;;;5053244;28;20479;-64
2023/07/14 13:34:22;;;;;;;;;;;;;;;;;;5054678;28;20025;-65
2023/07/14 13:36:48;;;;;;;;;;;;;;;;;;5053994;28;20259;-65
2023/07/14 13:39:14;;;;;;;;;;;;;;;;;;5036524;28;19905;-65
2023/07/14 13:41:40;;;;;;;;;;;;;;;;;;5036727;28;20393;-65
2023/07/14 13:44:06;;;;;;;;;;;;;;;;;;5036781;28;19911;-65
2023/07/14 13:46:32;;;;;;;;;;;;;;;;;;5054449;28;19904;-65
2023/07/14 13:49:01;;;;;;;;;;;;;;;;;;5054563;28;19905;-65
2023/07/14 13:51:27;;;;;;;;;;;;;;;;;;5054303;28;19967;-65
2023/07/14 13:53:53;;;;;;;;;;;;;;;;;;5036483;28;19911;-66
2023/07/14 13:56:19;;;;;;;;;;;;;;;;;;5054444;28;19908;-65
2023/07/14 13:58:45;;;;;;;3.75;3.28;;;;;;;;;;5036007;28;20197;-65
2023/07/14 14:01:13;;;;;;;5.20;3.60;;;;;;;;;;5053575;28;20380;-66
2023/07/14 14:03:39;;;;;;;6.28;4.10;;;;;;;;;;5053775;28;20539;-65
2023/07/14 14:06:09;;;;;;;6.85;4.13;;;;;;;;;;5053763;28;20261;-66
2023/07/14 14:08:35;;;;;;;7.63;4.13;;;;;;;;;;5053752;28;20213;-65
2023/07/14 14:11:01;;;;;;;6.82;4.10;;;;;;;;;;5053346;28;20198;-65
2023/07/14 14:13:27;;;;;;;4.47;3.90;;;;;;;;;;5053535;28;20206;-65
2023/07/14 14:15:53;;;;;;;9.57;5.50;;;;;;;;;;5053333;28;20641;-65
2023/07/14 14:18:20;;;;;;;5.28;3.90;;;;;;;;;;5053555;28;20649;-65
2023/07/14 14:20:47;;;;;;;4.45;3.95;;;;;;;;;;5053851;28;20344;-65
2023/07/14 14:23:14;;;;;;;8.25;4.13;;;;;;;;;;5053220;28;20182;-66
2023/07/14 14:25:40;;;;;;;4.80;4.22;;;;;;;;;;5053284;28;20170;-66
2023/07/14 14:28:06;;;;;;;12.18;4.63;;;;;;;;;;5053433;28;20605;-66
2023/07/14 14:30:39;;;;;;;7.35;4.57;;;;;;;;;;5053044;28;20199;-66
2023/07/14 14:33:08;;;;;;;7.70;4.65;;;;;;;;;;5052939;28;20209;-66
2023/07/14 14:35:36;;;;;;;8.52;4.60;;;;;;;;;;5053615;28;20225;-66
2023/07/14 14:38:12;;;;;;;4.25;3.70;;;;;;;;;;5053078;28;20166;-66
2023/07/14 14:40:38;;;;;;;4.90;4.10;;;;;;;;;;5035099;28;20684;-66
2023/07/14 14:43:21;;;;;;;15.35;5.22;;;;;;;;;;5053235;28;20640;-65
2023/07/14 14:45:47;;;;;;;7.75;4.47;;;;;;;;;;5035259;28;20174;-65
2023/07/14 14:48:16;;;;;;;5.32;4.28;;;;;;;;;;5057055;28;20174;-66
2023/07/14 14:50:42;;;;;;;6.72;4.45;;;;;;;;;;5057067;28;20244;-66